sensor_id;sensor_type;location;lat;lon;timestamp;temperature;humidity
20057;DHT22;10189;49.546;7.906;2023-06-26T00:01:50;15.50;73.00
20057;DHT22;10189;49.546;7.906;2023-06-26T00:04:17;15.50;73.10
20057;DHT22;10189;49.546;7.906;2023-06-26T00:06:42;15.50;73.10
20057;DHT22;10189;49.546;7.906;2023-06-26T00:09:08;15.40;73.30
20057;DHT22;10189;49.546;7.906;2023-06-26T00:11:34;15.40;73.50
20057;DHT22;10189;49.546;7.906;2023-06-26T00:14:00;15.30;73.90
20057;DHT22;10189;49.546;7.906;2023-06-26T00:16:27;15.30;74.10
20057;DHT22;10189;49.546;7.906;2023-06-26T00:18:53;15.30;74.10
20057;DHT22;10189;49.546;7.906;2023-06-26T00:21:19;15.20;74.30
20057;DHT22;10189;49.546;7.906;2023-06-26T00:23:45;15.20;74.80
20057;DHT22;10189;49.546;7.906;2023-06-26T00:26:12;15.20;74.90
20057;DHT22;10189;49.546;7.906;2023-06-26T00:28:38;15.10;74.80
20057;DHT22;10189;49.546;7.906;2023-06-26T00:31:03;15.10;74.90
20057;DHT22;10189;49.546;7.906;2023-06-26T00:33:29;15.10;74.80
20057;DHT22;10189;49.546;7.906;2023-06-26T00:35:56;15.10;74.90
20057;DHT22;10189;49.546;7.906;2023-06-26T00:38:22;15.10;74.90
20057;DHT22;10189;49.546;7.906;2023-06-26T00:40:48;15.00;75.00
20057;DHT22;10189;49.546;7.906;2023-06-26T00:43:14;15.00;75.20
20057;DHT22;10189;49.546;7.906;2023-06-26T00:45:41;15.00;75.80
20057;DHT22;10189;49.546;7.906;2023-06-26T00:48:06;14.90;75.90
20057;DHT22;10189;49.546;7.906;2023-06-26T00:50:32;14.90;76.00
20057;DHT22;10189;49.546;7.906;2023-06-26T00:52:58;14.80;75.90
20057;DHT22;10189;49.546;7.906;2023-06-26T00:55:27;14.80;75.60
20057;DHT22;10189;49.546;7.906;2023-06-26T00:57:54;14.90;75.30
20057;DHT22;10189;49.546;7.906;2023-06-26T01:00:21;14.90;75.20
20057;DHT22;10189;49.546;7.906;2023-06-26T01:02:47;14.90;75.20
20057;DHT22;10189;49.546;7.906;2023-06-26T01:05:14;14.90;74.80
20057;DHT22;10189;49.546;7.906;2023-06-26T01:07:49;14.90;74.60
20057;DHT22;10189;49.546;7.906;2023-06-26T01:10:17;14.90;74.90
20057;DHT22;10189;49.546;7.906;2023-06-26T01:12:43;14.80;75.50
20057;DHT22;10189;49.546;7.906;2023-06-26T01:15:10;14.80;75.90
20057;DHT22;10189;49.546;7.906;2023-06-26T01:17:37;14.80;76.30
20057;DHT22;10189;49.546;7.906;2023-06-26T01:20:06;14.80;76.90
20057;DHT22;10189;49.546;7.906;2023-06-26T01:23:05;14.70;77.20
20057;DHT22;10189;49.546;7.906;2023-06-26T01:28:27;14.60;77.50
20057;DHT22;10189;49.546;7.906;2023-06-26T01:30:56;14.50;77.80
20057;DHT22;10189;49.546;7.906;2023-06-26T01:33:24;14.50;78.00
20057;DHT22;10189;49.546;7.906;2023-06-26T01:35:51;14.40;77.90
20057;DHT22;10189;49.546;7.906;2023-06-26T01:38:19;14.40;78.10
20057;DHT22;10189;49.546;7.906;2023-06-26T01:40:46;14.40;78.60
20057;DHT22;10189;49.546;7.906;2023-06-26T01:46:25;14.40;78.60
20057;DHT22;10189;49.546;7.906;2023-06-26T01:53:04;14.20;79.20
20057;DHT22;10189;49.546;7.906;2023-06-26T01:55:49;14.30;79.20
20057;DHT22;10189;49.546;7.906;2023-06-26T01:58:20;14.30;79.20
20057;DHT22;10189;49.546;7.906;2023-06-26T02:00:49;14.30;79.10
20057;DHT22;10189;49.546;7.906;2023-06-26T02:03:15;14.30;78.80
20057;DHT22;10189;49.546;7.906;2023-06-26T02:05:41;14.30;78.60
20057;DHT22;10189;49.546;7.906;2023-06-26T02:08:08;14.20;78.90
20057;DHT22;10189;49.546;7.906;2023-06-26T02:10:34;14.30;78.80
20057;DHT22;10189;49.546;7.906;2023-06-26T02:13:00;14.30;79.00
20057;DHT22;10189;49.546;7.906;2023-06-26T02:15:27;14.30;79.20
20057;DHT22;10189;49.546;7.906;2023-06-26T02:17:53;14.30;79.50
20057;DHT22;10189;49.546;7.906;2023-06-26T02:20:19;14.30;80.30
20057;DHT22;10189;49.546;7.906;2023-06-26T02:22:45;14.20;80.40
20057;DHT22;10189;49.546;7.906;2023-06-26T02:25:11;14.20;80.50
20057;DHT22;10189;49.546;7.906;2023-06-26T02:27:38;14.20;80.60
20057;DHT22;10189;49.546;7.906;2023-06-26T02:30:04;14.10;80.30
20057;DHT22;10189;49.546;7.906;2023-06-26T02:32:31;14.10;80.00
20057;DHT22;10189;49.546;7.906;2023-06-26T02:34:56;14.10;79.90
20057;DHT22;10189;49.546;7.906;2023-06-26T02:37:22;14.10;80.20
20057;DHT22;10189;49.546;7.906;2023-06-26T02:39:49;14.10;80.40
20057;DHT22;10189;49.546;7.906;2023-06-26T02:42:14;14.10;80.90
20057;DHT22;10189;49.546;7.906;2023-06-26T02:44:40;14.00;81.20
20057;DHT22;10189;49.546;7.906;2023-06-26T02:47:06;14.00;81.40
20057;DHT22;10189;49.546;7.906;2023-06-26T02:49:34;14.00;81.40
20057;DHT22;10189;49.546;7.906;2023-06-26T02:52:00;14.00;81.40
20057;DHT22;10189;49.546;7.906;2023-06-26T02:54:28;14.00;81.40
20057;DHT22;10189;49.546;7.906;2023-06-26T02:57:00;14.00;81.80
20057;DHT22;10189;49.546;7.906;2023-06-26T02:59:29;13.90;82.00
20057;DHT22;10189;49.546;7.906;2023-06-26T03:01:55;13.80;82.20
20057;DHT22;10189;49.546;7.906;2023-06-26T03:04:28;13.80;82.30
20057;DHT22;10189;49.546;7.906;2023-06-26T03:06:54;13.80;82.30
20057;DHT22;10189;49.546;7.906;2023-06-26T03:09:20;13.80;82.20
20057;DHT22;10189;49.546;7.906;2023-06-26T03:11:45;13.80;82.20
20057;DHT22;10189;49.546;7.906;2023-06-26T03:14:11;13.70;82.10
20057;DHT22;10189;49.546;7.906;2023-06-26T03:16:38;13.70;82.30
20057;DHT22;10189;49.546;7.906;2023-06-26T03:19:03;13.70;82.40
20057;DHT22;10189;49.546;7.906;2023-06-26T03:21:34;13.80;82.50
20057;DHT22;10189;49.546;7.906;2023-06-26T03:24:00;13.80;82.60
20057;DHT22;10189;49.546;7.906;2023-06-26T03:26:26;13.90;82.30
20057;DHT22;10189;49.546;7.906;2023-06-26T03:28:54;13.90;81.80
20057;DHT22;10189;49.546;7.906;2023-06-26T03:31:21;13.90;81.40
20057;DHT22;10189;49.546;7.906;2023-06-26T03:33:47;13.90;81.40
20057;DHT22;10189;49.546;7.906;2023-06-26T03:36:13;13.90;81.50
20057;DHT22;10189;49.546;7.906;2023-06-26T03:38:40;13.90;82.40
20057;DHT22;10189;49.546;7.906;2023-06-26T03:41:07;13.90;82.50
20057;DHT22;10189;49.546;7.906;2023-06-26T03:43:33;13.90;82.50
20057;DHT22;10189;49.546;7.906;2023-06-26T03:46:19;13.90;82.30
20057;DHT22;10189;49.546;7.906;2023-06-26T03:48:46;13.90;82.10
20057;DHT22;10189;49.546;7.906;2023-06-26T03:51:13;13.90;82.20
20057;DHT22;10189;49.546;7.906;2023-06-26T03:53:40;13.90;82.60
20057;DHT22;10189;49.546;7.906;2023-06-26T03:56:06;14.00;82.90
20057;DHT22;10189;49.546;7.906;2023-06-26T03:58:31;14.00;83.10
20057;DHT22;10189;49.546;7.906;2023-06-26T04:00:57;14.00;82.60
20057;DHT22;10189;49.546;7.906;2023-06-26T04:03:24;14.10;82.40
20057;DHT22;10189;49.546;7.906;2023-06-26T04:05:50;14.20;82.20
20057;DHT22;10189;49.546;7.906;2023-06-26T04:08:16;14.20;81.90
20057;DHT22;10189;49.546;7.906;2023-06-26T04:10:42;14.30;81.60
20057;DHT22;10189;49.546;7.906;2023-06-26T04:13:11;14.40;81.30
20057;DHT22;10189;49.546;7.906;2023-06-26T04:15:37;14.50;81.50
20057;DHT22;10189;49.546;7.906;2023-06-26T04:18:03;14.50;81.10
20057;DHT22;10189;49.546;7.906;2023-06-26T04:20:29;14.60;80.80
20057;DHT22;10189;49.546;7.906;2023-06-26T04:22:54;14.70;80.50
20057;DHT22;10189;49.546;7.906;2023-06-26T04:25:20;14.90;80.10
20057;DHT22;10189;49.546;7.906;2023-06-26T04:27:46;15.00;80.00
20057;DHT22;10189;49.546;7.906;2023-06-26T04:30:13;15.30;79.60
20057;DHT22;10189;49.546;7.906;2023-06-26T04:32:39;15.60;79.10
20057;DHT22;10189;49.546;7.906;2023-06-26T04:35:05;15.90;76.90
20057;DHT22;10189;49.546;7.906;2023-06-26T04:37:31;16.10;76.90
20057;DHT22;10189;49.546;7.906;2023-06-26T04:39:57;16.40;76.00
20057;DHT22;10189;49.546;7.906;2023-06-26T04:42:22;16.60;76.50
20057;DHT22;10189;49.546;7.906;2023-06-26T04:44:48;16.90;76.00
20057;DHT22;10189;49.546;7.906;2023-06-26T04:47:14;17.30;74.50
20057;DHT22;10189;49.546;7.906;2023-06-26T04:49:41;17.50;73.60
20057;DHT22;10189;49.546;7.906;2023-06-26T04:52:11;17.80;72.40
20057;DHT22;10189;49.546;7.906;2023-06-26T04:54:41;18.00;70.30
20057;DHT22;10189;49.546;7.906;2023-06-26T04:57:06;18.00;69.50
20057;DHT22;10189;49.546;7.906;2023-06-26T04:59:34;17.90;71.00
20057;DHT22;10189;49.546;7.906;2023-06-26T05:02:00;17.80;71.80
20057;DHT22;10189;49.546;7.906;2023-06-26T05:04:25;17.60;72.10
20057;DHT22;10189;49.546;7.906;2023-06-26T05:06:51;17.60;73.20
20057;DHT22;10189;49.546;7.906;2023-06-26T05:09:17;17.70;73.50
20057;DHT22;10189;49.546;7.906;2023-06-26T05:11:43;17.80;73.10
20057;DHT22;10189;49.546;7.906;2023-06-26T05:14:09;18.00;72.20
20057;DHT22;10189;49.546;7.906;2023-06-26T05:16:35;18.10;71.20
20057;DHT22;10189;49.546;7.906;2023-06-26T05:19:01;18.10;70.10
20057;DHT22;10189;49.546;7.906;2023-06-26T05:21:28;18.00;70.70
20057;DHT22;10189;49.546;7.906;2023-06-26T05:23:56;18.00;71.20
20057;DHT22;10189;49.546;7.906;2023-06-26T05:26:23;18.10;72.50
20057;DHT22;10189;49.546;7.906;2023-06-26T05:28:51;18.30;73.00
20057;DHT22;10189;49.546;7.906;2023-06-26T05:31:17;18.70;71.70
20057;DHT22;10189;49.546;7.906;2023-06-26T05:33:44;18.90;71.80
20057;DHT22;10189;49.546;7.906;2023-06-26T05:36:12;19.20;69.80
20057;DHT22;10189;49.546;7.906;2023-06-26T05:38:39;19.40;68.60
20057;DHT22;10189;49.546;7.906;2023-06-26T05:41:05;19.50;68.10
20057;DHT22;10189;49.546;7.906;2023-06-26T05:43:31;19.50;67.10
20057;DHT22;10189;49.546;7.906;2023-06-26T05:45:57;19.60;67.80
20057;DHT22;10189;49.546;7.906;2023-06-26T05:48:23;19.80;66.80
20057;DHT22;10189;49.546;7.906;2023-06-26T05:50:49;20.00;66.90
20057;DHT22;10189;49.546;7.906;2023-06-26T05:53:15;20.20;65.10
20057;DHT22;10189;49.546;7.906;2023-06-26T05:55:42;20.50;64.10
20057;DHT22;10189;49.546;7.906;2023-06-26T05:58:10;20.80;63.80
20057;DHT22;10189;49.546;7.906;2023-06-26T06:00:38;21.00;62.90
20057;DHT22;10189;49.546;7.906;2023-06-26T06:03:05;21.20;63.40
20057;DHT22;10189;49.546;7.906;2023-06-26T06:05:31;21.60;62.90
20057;DHT22;10189;49.546;7.906;2023-06-26T06:07:57;21.90;62.80
20057;DHT22;10189;49.546;7.906;2023-06-26T06:10:23;22.20;58.70
20057;DHT22;10189;49.546;7.906;2023-06-26T06:12:49;22.50;55.90
20057;DHT22;10189;49.546;7.906;2023-06-26T06:15:15;22.90;55.30
20057;DHT22;10189;49.546;7.906;2023-06-26T06:17:41;23.00;55.20
20057;DHT22;10189;49.546;7.906;2023-06-26T06:20:07;23.10;56.30
20057;DHT22;10189;49.546;7.906;2023-06-26T06:22:33;23.30;54.60
20057;DHT22;10189;49.546;7.906;2023-06-26T06:24:59;23.40;54.00
20057;DHT22;10189;49.546;7.906;2023-06-26T06:27:26;23.60;55.70
20057;DHT22;10189;49.546;7.906;2023-06-26T06:29:52;23.70;52.90
20057;DHT22;10189;49.546;7.906;2023-06-26T06:32:18;23.90;54.10
20057;DHT22;10189;49.546;7.906;2023-06-26T06:34:44;24.00;53.90
20057;DHT22;10189;49.546;7.906;2023-06-26T06:37:10;23.90;53.20
20057;DHT22;10189;49.546;7.906;2023-06-26T06:39:36;24.00;53.70
20057;DHT22;10189;49.546;7.906;2023-06-26T06:42:02;24.20;53.50
20057;DHT22;10189;49.546;7.906;2023-06-26T06:44:28;24.30;53.80
20057;DHT22;10189;49.546;7.906;2023-06-26T06:46:56;24.50;52.00
20057;DHT22;10189;49.546;7.906;2023-06-26T06:49:22;24.50;52.20
20057;DHT22;10189;49.546;7.906;2023-06-26T06:51:47;24.40;51.50
20057;DHT22;10189;49.546;7.906;2023-06-26T06:54:16;24.60;52.50
20057;DHT22;10189;49.546;7.906;2023-06-26T06:56:42;24.60;51.20
20057;DHT22;10189;49.546;7.906;2023-06-26T06:59:08;24.70;51.40
20057;DHT22;10189;49.546;7.906;2023-06-26T07:01:34;25.00;50.30
20057;DHT22;10189;49.546;7.906;2023-06-26T07:04:00;25.10;50.20
20057;DHT22;10189;49.546;7.906;2023-06-26T07:06:26;25.20;50.50
20057;DHT22;10189;49.546;7.906;2023-06-26T07:08:52;25.20;49.40
20057;DHT22;10189;49.546;7.906;2023-06-26T07:11:18;25.00;49.10
20057;DHT22;10189;49.546;7.906;2023-06-26T07:13:43;25.00;49.30
20057;DHT22;10189;49.546;7.906;2023-06-26T07:16:09;25.20;50.70
20057;DHT22;10189;49.546;7.906;2023-06-26T07:18:37;25.50;50.60
20057;DHT22;10189;49.546;7.906;2023-06-26T07:21:04;25.40;48.80
20057;DHT22;10189;49.546;7.906;2023-06-26T07:23:29;25.10;49.30
20057;DHT22;10189;49.546;7.906;2023-06-26T07:25:55;25.10;50.10
20057;DHT22;10189;49.546;7.906;2023-06-26T07:28:21;24.90;50.90
20057;DHT22;10189;49.546;7.906;2023-06-26T07:30:47;24.70;51.20
20057;DHT22;10189;49.546;7.906;2023-06-26T07:33:13;24.90;51.60
20057;DHT22;10189;49.546;7.906;2023-06-26T07:35:39;25.20;51.20
20057;DHT22;10189;49.546;7.906;2023-06-26T07:38:05;25.40;49.90
20057;DHT22;10189;49.546;7.906;2023-06-26T07:40:31;25.30;50.30
20057;DHT22;10189;49.546;7.906;2023-06-26T07:42:57;25.40;50.30
20057;DHT22;10189;49.546;7.906;2023-06-26T07:45:24;25.20;50.70
20057;DHT22;10189;49.546;7.906;2023-06-26T07:47:49;25.10;52.70
20057;DHT22;10189;49.546;7.906;2023-06-26T07:50:15;25.30;52.20
20057;DHT22;10189;49.546;7.906;2023-06-26T07:52:47;25.50;50.50
20057;DHT22;10189;49.546;7.906;2023-06-26T07:55:12;25.40;51.60
20057;DHT22;10189;49.546;7.906;2023-06-26T07:57:38;25.60;51.60
20057;DHT22;10189;49.546;7.906;2023-06-26T08:00:05;25.50;51.30
20057;DHT22;10189;49.546;7.906;2023-06-26T08:02:39;25.70;51.70
20057;DHT22;10189;49.546;7.906;2023-06-26T08:05:05;25.80;51.50
20057;DHT22;10189;49.546;7.906;2023-06-26T08:07:31;26.10;52.50
20057;DHT22;10189;49.546;7.906;2023-06-26T08:09:57;26.50;52.10
20057;DHT22;10189;49.546;7.906;2023-06-26T08:12:23;26.60;50.60
20057;DHT22;10189;49.546;7.906;2023-06-26T08:14:48;26.30;50.40
20057;DHT22;10189;49.546;7.906;2023-06-26T08:17:14;26.20;52.40
20057;DHT22;10189;49.546;7.906;2023-06-26T08:19:40;26.30;52.70
20057;DHT22;10189;49.546;7.906;2023-06-26T08:22:06;26.40;52.50
20057;DHT22;10189;49.546;7.906;2023-06-26T08:24:32;26.60;50.90
20057;DHT22;10189;49.546;7.906;2023-06-26T08:26:58;26.70;49.50
20057;DHT22;10189;49.546;7.906;2023-06-26T08:29:24;26.70;50.20
20057;DHT22;10189;49.546;7.906;2023-06-26T08:31:50;26.90;49.30
20057;DHT22;10189;49.546;7.906;2023-06-26T08:34:16;27.00;50.20
20057;DHT22;10189;49.546;7.906;2023-06-26T08:36:41;27.20;50.10
20057;DHT22;10189;49.546;7.906;2023-06-26T08:39:07;27.30;49.50
20057;DHT22;10189;49.546;7.906;2023-06-26T08:41:34;27.10;48.50
20057;DHT22;10189;49.546;7.906;2023-06-26T08:44:00;27.00;48.70
20057;DHT22;10189;49.546;7.906;2023-06-26T08:46:26;27.30;49.80
20057;DHT22;10189;49.546;7.906;2023-06-26T08:49:12;27.30;50.30
20057;DHT22;10189;49.546;7.906;2023-06-26T08:51:49;27.30;48.90
20057;DHT22;10189;49.546;7.906;2023-06-26T08:54:25;27.70;48.90
20057;DHT22;10189;49.546;7.906;2023-06-26T08:56:57;27.80;49.40
20057;DHT22;10189;49.546;7.906;2023-06-26T08:59:24;27.90;47.70
20057;DHT22;10189;49.546;7.906;2023-06-26T09:01:50;28.10;47.70
20057;DHT22;10189;49.546;7.906;2023-06-26T09:04:17;27.70;47.80
20057;DHT22;10189;49.546;7.906;2023-06-26T09:06:44;27.60;48.80
20057;DHT22;10189;49.546;7.906;2023-06-26T09:09:10;27.50;49.00
20057;DHT22;10189;49.546;7.906;2023-06-26T09:11:36;27.50;49.10
20057;DHT22;10189;49.546;7.906;2023-06-26T09:14:01;27.80;47.50
20057;DHT22;10189;49.546;7.906;2023-06-26T09:16:31;27.70;50.00
20057;DHT22;10189;49.546;7.906;2023-06-26T09:18:57;27.80;48.80
20057;DHT22;10189;49.546;7.906;2023-06-26T09:21:22;27.90;48.90
20057;DHT22;10189;49.546;7.906;2023-06-26T09:23:50;28.00;48.60
20057;DHT22;10189;49.546;7.906;2023-06-26T09:26:17;28.00;49.30
20057;DHT22;10189;49.546;7.906;2023-06-26T09:28:42;27.70;50.70
20057;DHT22;10189;49.546;7.906;2023-06-26T09:31:09;27.70;49.30
20057;DHT22;10189;49.546;7.906;2023-06-26T09:33:37;27.60;48.80
20057;DHT22;10189;49.546;7.906;2023-06-26T09:36:19;27.60;49.70
20057;DHT22;10189;49.546;7.906;2023-06-26T09:38:47;27.90;49.10
20057;DHT22;10189;49.546;7.906;2023-06-26T09:41:17;28.00;48.90
20057;DHT22;10189;49.546;7.906;2023-06-26T09:43:50;28.20;49.80
20057;DHT22;10189;49.546;7.906;2023-06-26T09:49:06;28.50;47.80
20057;DHT22;10189;49.546;7.906;2023-06-26T09:51:39;28.50;46.50
20057;DHT22;10189;49.546;7.906;2023-06-26T09:54:08;28.10;48.30
20057;DHT22;10189;49.546;7.906;2023-06-26T09:56:37;28.10;48.20
20057;DHT22;10189;49.546;7.906;2023-06-26T09:59:05;28.20;49.40
20057;DHT22;10189;49.546;7.906;2023-06-26T10:01:32;28.20;48.80
20057;DHT22;10189;49.546;7.906;2023-06-26T10:03:58;28.50;47.30
20057;DHT22;10189;49.546;7.906;2023-06-26T10:09:00;28.10;45.80
20057;DHT22;10189;49.546;7.906;2023-06-26T10:11:35;27.50;46.10
20057;DHT22;10189;49.546;7.906;2023-06-26T10:14:07;27.00;47.50
20057;DHT22;10189;49.546;7.906;2023-06-26T10:16:36;27.20;48.70
20057;DHT22;10189;49.546;7.906;2023-06-26T10:19:06;27.40;47.20
20057;DHT22;10189;49.546;7.906;2023-06-26T10:21:37;27.40;47.00
20057;DHT22;10189;49.546;7.906;2023-06-26T10:24:06;27.50;46.00
20057;DHT22;10189;49.546;7.906;2023-06-26T10:26:38;27.60;46.20
20057;DHT22;10189;49.546;7.906;2023-06-26T10:29:10;27.60;45.60
20057;DHT22;10189;49.546;7.906;2023-06-26T10:31:39;27.80;46.10
20057;DHT22;10189;49.546;7.906;2023-06-26T10:34:08;28.00;44.80
20057;DHT22;10189;49.546;7.906;2023-06-26T10:36:35;28.20;44.30
20057;DHT22;10189;49.546;7.906;2023-06-26T10:39:04;28.20;43.90
20057;DHT22;10189;49.546;7.906;2023-06-26T10:41:37;28.10;43.20
20057;DHT22;10189;49.546;7.906;2023-06-26T10:44:17;28.30;44.10
20057;DHT22;10189;49.546;7.906;2023-06-26T10:46:54;28.70;43.90
20057;DHT22;10189;49.546;7.906;2023-06-26T10:49:25;28.90;43.50
20057;DHT22;10189;49.546;7.906;2023-06-26T10:51:53;28.90;41.70
20057;DHT22;10189;49.546;7.906;2023-06-26T10:54:21;28.70;41.80
20057;DHT22;10189;49.546;7.906;2023-06-26T10:56:51;28.70;41.70
20057;DHT22;10189;49.546;7.906;2023-06-26T10:59:26;28.90;41.40
20057;DHT22;10189;49.546;7.906;2023-06-26T11:02:00;29.00;41.10
20057;DHT22;10189;49.546;7.906;2023-06-26T11:04:44;29.00;40.80
20057;DHT22;10189;49.546;7.906;2023-06-26T11:07:25;29.10;40.10
20057;DHT22;10189;49.546;7.906;2023-06-26T11:12:53;29.10;40.00
20057;DHT22;10189;49.546;7.906;2023-06-26T11:15:25;29.00;40.50
20057;DHT22;10189;49.546;7.906;2023-06-26T11:17:53;28.90;39.40
20057;DHT22;10189;49.546;7.906;2023-06-26T11:20:20;28.70;39.80
20057;DHT22;10189;49.546;7.906;2023-06-26T11:22:46;28.70;41.50
20057;DHT22;10189;49.546;7.906;2023-06-26T11:25:19;28.90;39.10
20057;DHT22;10189;49.546;7.906;2023-06-26T11:27:45;28.90;38.50
20057;DHT22;10189;49.546;7.906;2023-06-26T11:30:23;28.60;39.60
20057;DHT22;10189;49.546;7.906;2023-06-26T11:32:50;28.40;39.00
20057;DHT22;10189;49.546;7.906;2023-06-26T11:35:27;28.30;40.30
20057;DHT22;10189;49.546;7.906;2023-06-26T11:37:58;28.40;39.70
20057;DHT22;10189;49.546;7.906;2023-06-26T11:40:29;28.70;39.80
20057;DHT22;10189;49.546;7.906;2023-06-26T11:43:00;28.80;39.80
20057;DHT22;10189;49.546;7.906;2023-06-26T11:45:31;28.80;39.40
20057;DHT22;10189;49.546;7.906;2023-06-26T11:47:58;28.40;39.10
20057;DHT22;10189;49.546;7.906;2023-06-26T11:50:26;28.10;38.60
20057;DHT22;10189;49.546;7.906;2023-06-26T11:52:57;28.00;38.00
20057;DHT22;10189;49.546;7.906;2023-06-26T11:55:25;28.10;37.60
20057;DHT22;10189;49.546;7.906;2023-06-26T11:57:55;28.40;37.60
20057;DHT22;10189;49.546;7.906;2023-06-26T12:00:22;28.60;36.10
20057;DHT22;10189;49.546;7.906;2023-06-26T12:02:49;28.50;36.20
20057;DHT22;10189;49.546;7.906;2023-06-26T12:05:17;28.50;35.80
20057;DHT22;10189;49.546;7.906;2023-06-26T12:07:46;28.60;35.80
20057;DHT22;10189;49.546;7.906;2023-06-26T12:10:14;28.80;34.30
20057;DHT22;10189;49.546;7.906;2023-06-26T12:12:41;28.40;33.40
20057;DHT22;10189;49.546;7.906;2023-06-26T12:15:09;28.20;34.70
20057;DHT22;10189;49.546;7.906;2023-06-26T12:17:38;28.40;33.70
20057;DHT22;10189;49.546;7.906;2023-06-26T12:20:05;28.50;34.30
20057;DHT22;10189;49.546;7.906;2023-06-26T12:22:45;28.70;33.40
20057;DHT22;10189;49.546;7.906;2023-06-26T12:25:13;28.80;34.80
20057;DHT22;10189;49.546;7.906;2023-06-26T12:27:39;28.80;34.20
20057;DHT22;10189;49.546;7.906;2023-06-26T12:30:05;28.90;34.50
20057;DHT22;10189;49.546;7.906;2023-06-26T12:32:34;29.00;32.80
20057;DHT22;10189;49.546;7.906;2023-06-26T12:35:00;29.00;34.50
20057;DHT22;10189;49.546;7.906;2023-06-26T12:37:27;29.00;34.90
20057;DHT22;10189;49.546;7.906;2023-06-26T12:39:57;28.60;33.90
20057;DHT22;10189;49.546;7.906;2023-06-26T12:42:24;28.30;33.20
20057;DHT22;10189;49.546;7.906;2023-06-26T12:44:51;28.30;33.80
20057;DHT22;10189;49.546;7.906;2023-06-26T12:47:19;28.70;33.60
20057;DHT22;10189;49.546;7.906;2023-06-26T12:49:52;28.90;34.20
20057;DHT22;10189;49.546;7.906;2023-06-26T12:52:20;29.10;33.10
20057;DHT22;10189;49.546;7.906;2023-06-26T12:54:47;29.20;31.80
20057;DHT22;10189;49.546;7.906;2023-06-26T12:57:17;29.30;30.70
20057;DHT22;10189;49.546;7.906;2023-06-26T12:59:43;29.10;29.40
20057;DHT22;10189;49.546;7.906;2023-06-26T13:02:09;29.10;29.80
20057;DHT22;10189;49.546;7.906;2023-06-26T13:04:39;29.10;31.40
20057;DHT22;10189;49.546;7.906;2023-06-26T13:07:10;29.10;32.10
20057;DHT22;10189;49.546;7.906;2023-06-26T13:09:37;29.10;31.80
20057;DHT22;10189;49.546;7.906;2023-06-26T13:12:06;29.00;32.80
20057;DHT22;10189;49.546;7.906;2023-06-26T13:14:33;29.10;31.20
20057;DHT22;10189;49.546;7.906;2023-06-26T13:17:00;28.90;31.90
20057;DHT22;10189;49.546;7.906;2023-06-26T13:19:27;29.00;31.60
20057;DHT22;10189;49.546;7.906;2023-06-26T13:21:53;29.20;31.80
20057;DHT22;10189;49.546;7.906;2023-06-26T13:24:19;29.20;31.50
20057;DHT22;10189;49.546;7.906;2023-06-26T13:26:45;29.10;32.10
20057;DHT22;10189;49.546;7.906;2023-06-26T13:29:11;29.30;31.60
20057;DHT22;10189;49.546;7.906;2023-06-26T13:31:37;29.00;31.50
20057;DHT22;10189;49.546;7.906;2023-06-26T13:34:04;29.00;32.00
20057;DHT22;10189;49.546;7.906;2023-06-26T13:36:30;29.20;31.50
20057;DHT22;10189;49.546;7.906;2023-06-26T13:38:59;29.50;31.40
20057;DHT22;10189;49.546;7.906;2023-06-26T13:41:25;29.60;30.50
20057;DHT22;10189;49.546;7.906;2023-06-26T13:43:51;29.50;31.30
20057;DHT22;10189;49.546;7.906;2023-06-26T13:46:18;29.10;31.40
20057;DHT22;10189;49.546;7.906;2023-06-26T13:48:44;29.30;32.50
20057;DHT22;10189;49.546;7.906;2023-06-26T13:51:11;29.40;29.80
20057;DHT22;10189;49.546;7.906;2023-06-26T13:53:37;29.20;29.90
20057;DHT22;10189;49.546;7.906;2023-06-26T13:56:03;28.90;29.80
20057;DHT22;10189;49.546;7.906;2023-06-26T13:58:29;28.70;29.90
20057;DHT22;10189;49.546;7.906;2023-06-26T14:00:55;28.60;30.80
20057;DHT22;10189;49.546;7.906;2023-06-26T14:03:21;28.50;30.20
20057;DHT22;10189;49.546;7.906;2023-06-26T14:05:47;28.50;31.50
20057;DHT22;10189;49.546;7.906;2023-06-26T14:08:13;28.50;33.90
20057;DHT22;10189;49.546;7.906;2023-06-26T14:10:39;28.50;31.80
20057;DHT22;10189;49.546;7.906;2023-06-26T14:13:06;28.20;33.00
20057;DHT22;10189;49.546;7.906;2023-06-26T14:15:32;28.20;34.00
20057;DHT22;10189;49.546;7.906;2023-06-26T14:17:59;28.20;32.60
20057;DHT22;10189;49.546;7.906;2023-06-26T14:20:25;28.20;33.30
20057;DHT22;10189;49.546;7.906;2023-06-26T14:22:51;28.30;34.60
20057;DHT22;10189;49.546;7.906;2023-06-26T14:25:17;28.20;34.00
20057;DHT22;10189;49.546;7.906;2023-06-26T14:27:42;28.30;33.60
20057;DHT22;10189;49.546;7.906;2023-06-26T14:30:09;28.40;34.30
20057;DHT22;10189;49.546;7.906;2023-06-26T14:32:35;28.40;33.90
20057;DHT22;10189;49.546;7.906;2023-06-26T14:35:02;28.40;34.70
20057;DHT22;10189;49.546;7.906;2023-06-26T14:37:29;28.40;34.00
20057;DHT22;10189;49.546;7.906;2023-06-26T14:39:56;28.30;33.80
20057;DHT22;10189;49.546;7.906;2023-06-26T14:42:23;28.10;34.80
20057;DHT22;10189;49.546;7.906;2023-06-26T14:44:49;28.00;33.80
20057;DHT22;10189;49.546;7.906;2023-06-26T14:47:19;28.00;34.60
20057;DHT22;10189;49.546;7.906;2023-06-26T14:49:45;27.80;34.40
20057;DHT22;10189;49.546;7.906;2023-06-26T14:52:11;27.70;34.60
20057;DHT22;10189;49.546;7.906;2023-06-26T14:54:37;27.70;35.10
20057;DHT22;10189;49.546;7.906;2023-06-26T14:57:06;27.80;34.10
20057;DHT22;10189;49.546;7.906;2023-06-26T14:59:33;27.80;33.10
20057;DHT22;10189;49.546;7.906;2023-06-26T15:01:59;27.80;32.50
20057;DHT22;10189;49.546;7.906;2023-06-26T15:04:25;27.70;32.80
20057;DHT22;10189;49.546;7.906;2023-06-26T15:06:52;27.40;31.60
20057;DHT22;10189;49.546;7.906;2023-06-26T15:09:18;27.20;32.30
20057;DHT22;10189;49.546;7.906;2023-06-26T15:11:44;27.20;32.00
20057;DHT22;10189;49.546;7.906;2023-06-26T15:14:10;27.10;32.50
20057;DHT22;10189;49.546;7.906;2023-06-26T15:16:36;27.20;33.10
20057;DHT22;10189;49.546;7.906;2023-06-26T15:19:02;27.40;32.00
20057;DHT22;10189;49.546;7.906;2023-06-26T15:21:27;27.50;31.60
20057;DHT22;10189;49.546;7.906;2023-06-26T15:23:53;27.30;31.90
20057;DHT22;10189;49.546;7.906;2023-06-26T15:26:19;27.40;32.30
20057;DHT22;10189;49.546;7.906;2023-06-26T15:28:45;27.60;31.90
20057;DHT22;10189;49.546;7.906;2023-06-26T15:31:11;27.40;30.80
20057;DHT22;10189;49.546;7.906;2023-06-26T15:33:36;27.10;31.70
20057;DHT22;10189;49.546;7.906;2023-06-26T15:36:02;27.20;31.90
20057;DHT22;10189;49.546;7.906;2023-06-26T15:38:29;27.40;32.20
20057;DHT22;10189;49.546;7.906;2023-06-26T15:40:55;27.50;33.40
20057;DHT22;10189;49.546;7.906;2023-06-26T15:43:22;27.50;32.10
20057;DHT22;10189;49.546;7.906;2023-06-26T15:45:47;27.50;32.90
20057;DHT22;10189;49.546;7.906;2023-06-26T15:48:13;27.70;33.20
20057;DHT22;10189;49.546;7.906;2023-06-26T15:50:39;27.90;31.70